Latest  Newer  Older  Last 2 hours slideshow  Last 24 hours slideshow  Refresh every 5 minutes 
Current image  Latest image  Rain/snow radar  Cloud coverage sat images 

All time is UTC (add 2 hours to UTC in wintertime, 3 hours to UTC in DST for Latvia local time)

2020/04/01 21:50 EVRA 012150Z 20007KT 9999 SCT020 BKN032 05/01 Q1002 NOSIG
2020/04/01 21:50 EVLA 012150Z AUTO 24014KT 9999 SCT008/// BKN036/// OVC042/// 05/05 Q1001
2020/04/01 21:50 EVVA 012150Z AUTO 22011KT 9999 SCT007 05/04 Q1000
2020/04/01 21:50 EYKA 012150Z AUTO 22007KT 200V260 9000 -UP FEW012/// OVC030/// 03/M01 Q1006
2020/04/01 21:50 EYPA 012150Z AUTO 26007KT 200V300 9999 BKN009/// 05/04 Q1003
2020/04/01 21:50 EYSA 012150Z 20010KT 9999 OVC010 03/02 Q1003 GRN NOSIG
2020/04/01 21:50 EYVI 012150Z 22007KT 9999 OVC049 02/M01 Q1007 NOSIG



2020/04/01 21:50 EETN 012150Z 20006KT CAVOK M01/M03 Q0997 R08/00//95 NOSIG

   RIGA AIRPORT     EVRA               56 55N  023 58E   10   X     T          6 LV
   LIEPAJA INTL     EVLA        26406  56 31N  021 06E    4   X                8 LV
   VENTPILS         EVVA               57 21N  021 33E    6   X                8 LV
   KAUNAS           EYKA               54 54N  023 55E   77   X     T          6 LT
   PALANGA INTL     EYPA               55 55N  021 03E   10   X                6 LT
   SIAULIAI INTL    EYSA               55 54N  023 24E  135   X     T          6 LT
   VILNIUS INTL     EYVI        26730  54 38N  025 17E  197   X     T          6 LT
   KARDLA           EEKA        26116  58 59N  022 50E    4   X                8 EE
   KURESSAARE       EEKE               58 14N  022 31E    4   X                8 EE
   PARNU            EEPU               58 25N  024 28E   14   X                8 EE
   TALLINN          EETN        26038  59 24N  024 49E   40   X     T          8 EE
   TARTU            EETU               58 19N  026 41E   67   X                8 EE